Round Top, Texas
Current Conditions -  °F | °C
As of 6:35 AM on Thursday 23 Oct 2014 (Local Time) from K3T5 Reporting Station
Clear Clear  
Wind Chill: 64°   Ceiling: Unl
Heat Index: 64°   Visibility: 7mi
Dew Point: 63°   Wind: 3mph
Humidity: 96%   Direction: 310°NW
Pressure: 30.09"   Gusts: NA
Location:  30.06°N, 96.7°W
Report Text: K3T5 231135Z AUTO 31003KT 7SM CLR 18/17 A3009 RMK AO2 T01790173
Loading
Personal Weather Stations






























Interactive Weather Map
Tropical Storm Tracking
New forecast layout! Learn more

10-Day Weather Forecast

Advertisements
Track Severe Weather on mobile